createdAt,value
2018-06-24T00:00:21.414Z,74.80
2018-06-24T00:02:50.824Z,74.80
2018-06-24T00:05:20.266Z,75.00
2018-06-24T00:07:49.912Z,75.00
2018-06-24T00:10:19.340Z,75.00
2018-06-24T00:12:52.314Z,75.90
2018-06-24T00:15:21.955Z,74.90
2018-06-24T00:17:51.576Z,75.00
2018-06-24T00:20:21.696Z,75.00
2018-06-24T00:22:51.215Z,75.00
2018-06-24T00:25:20.793Z,75.00
2018-06-24T00:27:50.382Z,75.00
2018-06-24T00:30:19.763Z,75.00
2018-06-24T00:32:49.228Z,75.00
2018-06-24T00:35:18.592Z,75.10
2018-06-24T00:37:47.887Z,75.00
2018-06-24T00:40:17.149Z,75.00
2018-06-24T00:42:46.390Z,74.90
2018-06-24T00:45:15.675Z,74.70
2018-06-24T00:47:45.211Z,74.60
2018-06-24T00:50:14.623Z,74.40
2018-06-24T00:52:44.097Z,74.20
2018-06-24T00:55:13.334Z,74.10
2018-06-24T00:57:43.006Z,74.20
2018-06-24T01:00:15.640Z,74.10
2018-06-24T01:02:45.088Z,74.10
2018-06-24T01:05:14.952Z,74.10
2018-06-24T01:07:45.422Z,73.90
2018-06-24T01:10:14.826Z,73.90
2018-06-24T01:12:44.242Z,73.80
2018-06-24T01:15:13.748Z,73.80
2018-06-24T01:17:43.065Z,73.80
2018-06-24T01:20:12.480Z,73.70
2018-06-24T01:22:42.037Z,73.60
2018-06-24T01:28:05.205Z,73.30
2018-06-24T01:30:34.512Z,73.20
2018-06-24T01:33:04.060Z,73.40
2018-06-24T01:35:33.549Z,73.40
2018-06-24T01:38:03.067Z,73.40
2018-06-24T01:40:32.337Z,73.40
2018-06-24T01:43:01.819Z,73.20
2018-06-24T01:45:31.151Z,73.20
2018-06-24T01:48:18.422Z,73.00
2018-06-24T01:50:48.796Z,73.00
2018-06-24T01:53:18.195Z,73.10
2018-06-24T01:55:47.640Z,73.00
2018-06-24T01:58:16.892Z,72.80
2018-06-24T02:00:46.109Z,72.80
2018-06-24T02:03:15.680Z,72.80
2018-06-24T02:08:14.362Z,72.70
2018-06-24T02:10:43.616Z,72.60
2018-06-24T02:13:12.964Z,72.60
2018-06-24T02:15:42.269Z,72.50
2018-06-24T02:18:17.641Z,72.50
2018-06-24T02:20:46.909Z,72.40
2018-06-24T02:25:45.263Z,72.20
2018-06-24T02:28:14.751Z,72.10
2018-06-24T02:30:44.045Z,72.10
2018-06-24T02:33:14.068Z,71.90
2018-06-24T02:35:43.366Z,71.90
2018-06-24T02:38:12.771Z,71.90
2018-06-24T02:40:42.178Z,72.00
2018-06-24T02:43:12.100Z,72.10
2018-06-24T02:45:41.352Z,72.20
2018-06-24T02:48:10.707Z,72.00
2018-06-24T02:53:40.241Z,72.30
2018-06-24T02:56:09.516Z,72.50
2018-06-24T02:58:38.831Z,72.80
2018-06-24T03:01:08.516Z,73.20
2018-06-24T03:03:37.938Z,73.30
2018-06-24T03:06:08.304Z,73.40
2018-06-24T03:08:37.788Z,73.70
2018-06-24T03:11:07.098Z,73.40
2018-06-24T03:13:37.452Z,74.20
2018-06-24T03:16:06.756Z,74.50
2018-06-24T03:18:36.098Z,74.80
2018-06-24T03:21:05.539Z,75.30
2018-06-24T03:23:35.334Z,75.60
2018-06-24T03:26:04.999Z,75.70
2018-06-24T03:28:36.336Z,76.10
2018-06-24T03:31:05.813Z,76.30
2018-06-24T03:33:35.147Z,76.40
2018-06-24T03:36:11.411Z,76.70
2018-06-24T03:38:40.301Z,77.00
2018-06-24T03:41:09.629Z,77.10
2018-06-24T03:43:39.011Z,77.30
2018-06-24T03:46:08.385Z,77.50
2018-06-24T03:48:38.036Z,77.70
2018-06-24T03:51:07.376Z,77.60
2018-06-24T03:53:36.860Z,77.70
2018-06-24T03:56:06.179Z,77.60
2018-06-24T03:58:35.505Z,77.60
2018-06-24T04:01:04.988Z,77.90
2018-06-24T04:03:34.202Z,78.00
2018-06-24T04:06:03.456Z,78.00
2018-06-24T04:08:32.807Z,78.70
2018-06-24T04:11:03.212Z,77.90
2018-06-24T04:13:32.842Z,77.80
2018-06-24T04:16:04.743Z,77.80
2018-06-24T04:18:38.696Z,77.60
2018-06-24T04:21:08.599Z,77.50
2018-06-24T04:23:37.971Z,77.60
2018-06-24T04:26:08.536Z,77.80
2018-06-24T04:28:38.129Z,77.60
2018-06-24T04:31:07.907Z,77.50
2018-06-24T04:33:37.432Z,77.30
2018-06-24T04:36:06.725Z,77.20
2018-06-24T04:38:36.141Z,77.20
2018-06-24T04:41:05.361Z,77.30
2018-06-24T04:43:34.852Z,77.30
2018-06-24T04:46:05.138Z,77.30
2018-06-24T04:48:34.784Z,77.30
2018-06-24T04:51:04.096Z,77.10
2018-06-24T04:53:33.768Z,77.80
2018-06-24T04:56:02.969Z,77.70
2018-06-24T04:58:32.408Z,77.00
2018-06-24T05:01:02.274Z,76.80
2018-06-24T05:03:32.082Z,76.50
2018-06-24T05:06:01.957Z,76.30
2018-06-24T05:08:31.864Z,76.20
2018-06-24T05:11:01.507Z,76.60
2018-06-24T05:13:31.212Z,76.10
2018-06-24T05:16:00.671Z,76.00
2018-06-24T05:18:30.709Z,75.80
2018-06-24T05:21:00.016Z,75.50
2018-06-24T05:23:29.989Z,75.60
2018-06-24T05:25:59.917Z,75.70
2018-06-24T05:28:29.237Z,75.60
2018-06-24T05:30:58.825Z,75.60
2018-06-24T05:33:28.364Z,75.60
2018-06-24T05:35:58.351Z,75.50
2018-06-24T05:38:27.769Z,75.50
2018-06-24T05:40:57.038Z,75.50
2018-06-24T05:46:28.312Z,75.20
2018-06-24T05:48:57.845Z,75.00
2018-06-24T05:51:27.369Z,74.90
2018-06-24T05:53:56.903Z,74.80
2018-06-24T05:56:26.540Z,74.60
2018-06-24T05:58:56.206Z,74.60
2018-06-24T06:01:25.444Z,74.40
2018-06-24T06:03:54.958Z,74.10
2018-06-24T06:06:24.263Z,74.20
2018-06-24T06:08:53.697Z,74.10
2018-06-24T06:11:22.969Z,74.00
2018-06-24T06:13:53.557Z,73.80
2018-06-24T06:16:23.283Z,73.70
2018-06-24T06:18:52.944Z,73.70
2018-06-24T06:21:22.265Z,73.70
2018-06-24T06:23:51.623Z,73.70
2018-06-24T06:26:21.077Z,73.80
2018-06-24T06:28:51.147Z,73.70
2018-06-24T06:31:20.577Z,73.50
2018-06-24T06:33:50.465Z,73.60
2018-06-24T06:36:19.736Z,74.00
2018-06-24T06:38:49.574Z,74.10
2018-06-24T06:41:20.938Z,74.30
2018-06-24T06:43:50.838Z,74.60
2018-06-24T06:46:20.132Z,74.70
2018-06-24T06:48:50.787Z,74.80
2018-06-24T06:51:20.206Z,74.60
2018-06-24T06:53:50.313Z,75.30
2018-06-24T06:56:20.059Z,74.50
2018-06-24T06:58:50.787Z,74.70
2018-06-24T07:01:20.269Z,74.90
2018-06-24T07:03:50.009Z,75.00
2018-06-24T07:06:19.728Z,75.10
2018-06-24T07:08:49.321Z,75.50
2018-06-24T07:11:18.897Z,76.00
2018-06-24T07:13:48.558Z,76.40
2018-06-24T07:16:18.046Z,77.30
2018-06-24T07:18:47.647Z,76.30
2018-06-24T07:21:18.365Z,76.20
2018-06-24T07:23:48.273Z,76.00
2018-06-24T07:26:17.626Z,75.70
2018-06-24T07:28:47.381Z,74.90
2018-06-24T07:31:17.060Z,73.60
2018-06-24T07:33:46.808Z,72.60
2018-06-24T07:38:44.890Z,71.30
2018-06-24T07:41:14.380Z,70.90
2018-06-24T07:43:43.843Z,70.10
2018-06-24T07:46:13.172Z,69.20
2018-06-24T07:48:42.820Z,68.70
2018-06-24T07:51:12.242Z,67.80
2018-06-24T07:53:41.842Z,67.10
2018-06-24T07:56:11.390Z,67.00
2018-06-24T07:58:40.935Z,66.90
2018-06-24T08:01:10.205Z,66.50
2018-06-24T08:03:39.762Z,65.50
2018-06-24T08:06:09.508Z,64.70
2018-06-24T08:08:39.648Z,64.30
2018-06-24T08:11:16.946Z,64.80
2018-06-24T08:13:47.075Z,63.80
2018-06-24T08:16:16.578Z,63.20
2018-06-24T08:18:46.198Z,62.90
2018-06-24T08:21:17.220Z,62.80
2018-06-24T08:23:47.315Z,62.40
2018-06-24T08:26:16.928Z,62.70
2018-06-24T08:28:46.657Z,63.00
2018-06-24T08:31:24.337Z,62.90
2018-06-24T08:33:55.381Z,63.20
2018-06-24T08:36:25.936Z,63.00
2018-06-24T08:38:55.558Z,62.50
2018-06-24T08:41:25.447Z,62.00
2018-06-24T08:43:55.271Z,61.80
2018-06-24T08:46:25.601Z,61.30
2018-06-24T08:49:07.963Z,60.60
2018-06-24T08:51:37.487Z,60.10
2018-06-24T08:54:06.927Z,59.90
2018-06-24T08:56:36.653Z,59.90
2018-06-24T09:01:39.535Z,59.60
2018-06-24T09:04:09.587Z,59.40
2018-06-24T09:06:39.386Z,58.90
2018-06-24T09:09:10.909Z,58.70
2018-06-24T09:11:40.622Z,58.50
2018-06-24T09:14:10.337Z,58.30
2018-06-24T09:16:41.868Z,58.20
2018-06-24T09:19:11.557Z,58.00
2018-06-24T09:21:42.054Z,58.10
2018-06-24T09:24:11.497Z,58.00
2018-06-24T09:26:42.003Z,57.90
2018-06-24T09:29:11.820Z,58.00
2018-06-24T09:34:10.893Z,57.90
2018-06-24T09:36:40.280Z,57.90
2018-06-24T09:39:14.747Z,57.40
2018-06-24T09:41:46.287Z,57.90
2018-06-24T09:44:18.706Z,57.10
2018-06-24T09:46:48.484Z,57.00
2018-06-24T09:49:22.662Z,57.10
2018-06-24T09:51:52.007Z,57.00
2018-06-24T09:54:21.577Z,56.80
2018-06-24T09:56:51.257Z,56.70
2018-06-24T09:59:21.153Z,56.60
2018-06-24T10:01:50.637Z,56.30
2018-06-24T10:04:20.473Z,56.10
2018-06-24T10:06:50.427Z,56.30
2018-06-24T10:09:20.272Z,56.30
2018-06-24T10:11:52.542Z,56.50
2018-06-24T10:14:22.907Z,56.10
2018-06-24T10:16:53.847Z,56.20
2018-06-24T10:19:23.496Z,56.10
2018-06-24T10:21:53.084Z,55.70
2018-06-24T10:24:22.964Z,55.70
2018-06-24T10:30:08.162Z,55.60
2018-06-24T10:32:51.892Z,55.60
2018-06-24T10:35:23.101Z,55.80
2018-06-24T10:37:55.134Z,55.50
2018-06-24T10:40:25.215Z,55.50
2018-06-24T10:42:54.855Z,55.50
2018-06-24T10:45:24.332Z,55.60
2018-06-24T10:47:55.020Z,55.70
2018-06-24T10:50:26.773Z,55.60
2018-06-24T10:52:56.741Z,55.60
2018-06-24T10:55:27.433Z,55.70
2018-06-24T10:57:57.221Z,55.50
2018-06-24T11:00:30.923Z,55.60
2018-06-24T11:03:06.119Z,55.60
2018-06-24T11:05:35.800Z,55.50
2018-06-24T11:08:07.677Z,55.60
2018-06-24T11:10:37.362Z,55.60
2018-06-24T11:13:07.547Z,55.80
2018-06-24T11:15:37.213Z,55.70
2018-06-24T11:18:06.926Z,55.50
2018-06-24T11:20:36.771Z,55.60
2018-06-24T11:23:10.658Z,55.70
2018-06-24T11:25:40.963Z,55.80
2018-06-24T11:30:52.499Z,56.40
2018-06-24T11:33:24.200Z,56.70
2018-06-24T11:35:58.582Z,56.90
2018-06-24T11:38:28.340Z,57.00
2018-06-24T11:40:58.115Z,57.20
2018-06-24T11:46:05.358Z,57.20
2018-06-24T11:48:35.921Z,57.10
2018-06-24T11:51:06.037Z,56.90
2018-06-24T11:53:36.011Z,56.80
2018-06-24T11:56:05.682Z,56.70
2018-06-24T11:58:36.540Z,56.80
2018-06-24T12:01:06.459Z,57.00
2018-06-24T12:03:43.903Z,57.40
2018-06-24T12:06:20.807Z,57.30
2018-06-24T12:08:53.217Z,57.30
2018-06-24T12:11:42.203Z,57.60
2018-06-24T12:14:21.111Z,57.70
2018-06-24T12:17:00.068Z,57.50
2018-06-24T12:19:38.315Z,57.60
2018-06-24T12:22:17.717Z,57.30
2018-06-24T12:24:48.743Z,57.20
2018-06-24T12:27:18.607Z,57.00
2018-06-24T12:29:52.035Z,57.20
2018-06-24T12:32:23.793Z,57.30
2018-06-24T12:37:40.269Z,57.40
2018-06-24T12:40:15.912Z,57.60
2018-06-24T12:42:49.572Z,57.50
2018-06-24T12:48:20.162Z,57.60
2018-06-24T12:50:58.405Z,57.80
2018-06-24T12:53:31.061Z,58.20
2018-06-24T12:56:02.690Z,58.20
2018-06-24T12:58:32.390Z,58.10
2018-06-24T13:01:25.299Z,58.30
2018-06-24T13:15:56.249Z,56.50
2018-06-24T13:18:32.120Z,55.00
2018-06-24T13:21:11.817Z,54.00
2018-06-24T13:23:42.508Z,53.70
2018-06-24T13:26:11.877Z,53.60
2018-06-24T13:28:48.911Z,53.30
2018-06-24T13:31:20.823Z,53.60
2018-06-24T13:33:51.482Z,53.50
2018-06-24T13:36:29.466Z,53.80
2018-06-24T13:39:07.306Z,52.90
2018-06-24T13:41:40.095Z,52.10
2018-06-24T13:44:18.244Z,52.10
2018-06-24T13:46:47.963Z,52.00
2018-06-24T13:49:21.438Z,51.10
2018-06-24T13:51:50.945Z,50.80
2018-06-24T13:54:20.431Z,50.00
2018-06-24T13:56:50.533Z,49.70
2018-06-24T13:59:20.311Z,49.50
2018-06-24T14:01:50.003Z,49.50
2018-06-24T14:04:19.677Z,49.00
2018-06-24T14:06:49.488Z,48.00
2018-06-24T14:09:24.655Z,48.30
2018-06-24T14:11:54.603Z,47.20
2018-06-24T14:14:24.370Z,46.30
2018-06-24T14:16:54.753Z,45.40
2018-06-24T14:19:24.602Z,45.30
2018-06-24T14:21:54.363Z,44.00
2018-06-24T14:24:23.888Z,43.30
2018-06-24T14:26:53.408Z,42.10
2018-06-24T14:29:22.934Z,41.80
2018-06-24T14:31:52.575Z,42.00
2018-06-24T14:34:22.445Z,41.80
2018-06-24T14:36:52.052Z,42.70
2018-06-24T14:39:21.679Z,43.60
2018-06-24T14:42:13.259Z,44.70
2018-06-24T14:44:42.731Z,45.60
2018-06-24T14:47:24.931Z,45.90
2018-06-24T14:49:54.648Z,46.40
2018-06-24T14:52:24.265Z,46.90
2018-06-24T14:54:53.837Z,47.20
2018-06-24T14:57:23.324Z,47.70
2018-06-24T14:59:52.870Z,48.20
2018-06-24T15:02:22.836Z,48.70
2018-06-24T15:04:52.471Z,48.80
2018-06-24T15:07:22.432Z,49.00
2018-06-24T15:09:52.038Z,49.40
2018-06-24T15:12:21.599Z,49.90
2018-06-24T15:14:51.048Z,50.30
2018-06-24T15:17:21.081Z,50.60
2018-06-24T15:19:50.617Z,50.70
2018-06-24T15:22:22.132Z,51.00
2018-06-24T15:24:51.583Z,51.30
2018-06-24T15:27:21.064Z,51.70
2018-06-24T15:29:50.460Z,51.80
2018-06-24T15:32:21.641Z,52.00
2018-06-24T15:34:51.907Z,52.10
2018-06-24T15:37:21.711Z,52.20
2018-06-24T15:39:52.023Z,52.20
2018-06-24T15:42:21.604Z,52.20
2018-06-24T15:44:51.190Z,52.30
2018-06-24T15:49:50.364Z,52.50
2018-06-24T15:52:22.725Z,52.60
2018-06-24T15:54:58.786Z,52.80
2018-06-24T15:57:29.765Z,53.10
2018-06-24T16:02:29.422Z,52.90
2018-06-24T16:04:59.232Z,53.10
2018-06-24T16:07:30.012Z,53.20
2018-06-24T16:10:04.184Z,53.10
2018-06-24T16:12:34.035Z,53.80
2018-06-24T16:15:04.223Z,53.50
2018-06-24T16:17:35.134Z,53.60
2018-06-24T16:20:06.530Z,53.60
2018-06-24T16:25:06.547Z,54.00
2018-06-24T16:27:36.683Z,54.10
2018-06-24T16:32:36.485Z,54.50
2018-06-24T16:35:07.089Z,54.80
2018-06-24T16:37:36.707Z,55.60
2018-06-24T16:43:23.101Z,54.90
2018-06-24T16:48:22.192Z,55.00
2018-06-24T16:50:58.105Z,55.20
2018-06-24T16:53:27.879Z,55.10
2018-06-24T16:55:58.168Z,55.10
2018-06-24T16:58:28.453Z,55.10
2018-06-24T17:00:58.729Z,55.00
2018-06-24T17:03:32.965Z,55.00
2018-06-24T17:06:02.766Z,55.10
2018-06-24T17:08:38.138Z,55.10
2018-06-24T17:11:08.027Z,55.00
2018-06-24T17:13:42.880Z,55.10
2018-06-24T17:16:14.881Z,55.00
2018-06-24T17:21:13.812Z,55.00
2018-06-24T17:23:43.668Z,55.10
2018-06-24T17:26:13.619Z,55.10
2018-06-24T17:28:43.272Z,55.20
2018-06-24T17:31:13.085Z,55.30
2018-06-24T17:33:42.510Z,55.30
2018-06-24T17:36:16.332Z,55.40
2018-06-24T17:38:46.348Z,55.40
2018-06-24T17:41:16.258Z,55.60
2018-06-24T17:43:48.791Z,55.70
2018-06-24T17:46:18.694Z,55.70
2018-06-24T17:48:50.776Z,55.60
2018-06-24T17:51:20.869Z,55.60
2018-06-24T17:53:50.637Z,55.70
2018-06-24T17:56:23.778Z,55.80
2018-06-24T17:59:00.716Z,55.80
2018-06-24T18:01:30.716Z,55.90
2018-06-24T18:04:00.716Z,56.00
2018-06-24T18:06:31.023Z,56.20
2018-06-24T18:09:01.356Z,56.30
2018-06-24T18:11:32.269Z,56.50
2018-06-24T18:14:03.357Z,56.50
2018-06-24T18:16:35.888Z,56.50
2018-06-24T18:19:06.221Z,56.60
2018-06-24T18:21:36.605Z,56.60
2018-06-24T18:24:12.334Z,56.50
2018-06-24T18:26:44.115Z,56.40
2018-06-24T18:29:14.176Z,56.40
2018-06-24T18:31:53.376Z,56.40
2018-06-24T18:37:01.601Z,56.50
2018-06-24T18:42:02.673Z,56.60
2018-06-24T18:44:33.096Z,56.60
2018-06-24T18:47:03.750Z,56.70
2018-06-24T18:49:36.008Z,56.70
2018-06-24T18:52:07.378Z,56.80
2018-06-24T18:54:39.307Z,56.80
2018-06-24T18:57:21.243Z,56.90
2018-06-24T18:59:53.117Z,56.90
2018-06-24T19:02:24.158Z,57.10
2018-06-24T19:04:54.664Z,57.20
2018-06-24T19:07:26.788Z,57.10
2018-06-24T19:09:57.697Z,57.10
2018-06-24T19:12:29.999Z,57.20
2018-06-24T19:15:01.471Z,57.30
2018-06-24T19:17:34.786Z,57.40
2018-06-24T19:20:06.256Z,57.50
2018-06-24T19:22:37.447Z,57.60
2018-06-24T19:25:10.613Z,57.70
2018-06-24T19:27:48.229Z,57.90
2018-06-24T19:30:26.778Z,58.10
2018-06-24T19:32:58.296Z,58.00
2018-06-24T19:35:32.836Z,58.20
2018-06-24T19:38:18.298Z,58.20
2018-06-24T19:40:57.095Z,58.20
2018-06-24T19:43:41.238Z,58.30
2018-06-24T19:46:12.093Z,58.40
2018-06-24T19:48:43.269Z,58.60
2018-06-24T19:51:17.091Z,58.60
2018-06-24T19:53:49.250Z,59.10
2018-06-24T19:56:20.247Z,58.90
2018-06-24T20:05:02.763Z,59.10
2018-06-24T20:07:52.046Z,59.20
2018-06-24T20:13:28.847Z,59.60
2018-06-24T20:15:59.808Z,59.80
2018-06-24T20:18:35.712Z,60.00
2018-06-24T20:21:06.823Z,60.00
2018-06-24T20:23:39.803Z,60.20
2018-06-24T20:26:10.393Z,60.70
2018-06-24T20:28:42.251Z,60.70
2018-06-24T20:31:14.632Z,60.70
2018-06-24T20:33:49.207Z,60.80
2018-06-24T20:36:20.561Z,60.90
2018-06-24T20:38:51.204Z,61.80
2018-06-24T20:41:28.260Z,61.10
2018-06-24T20:46:36.771Z,61.40
2018-06-24T20:49:06.997Z,61.40
2018-06-24T20:51:39.388Z,61.60
2018-06-24T20:54:10.157Z,61.70
2018-06-24T20:56:40.149Z,61.80
2018-06-24T20:59:11.419Z,61.90
2018-06-24T21:01:53.135Z,61.90
2018-06-24T21:04:25.654Z,62.10
2018-06-24T21:07:00.170Z,62.20
2018-06-24T21:09:40.448Z,62.30
2018-06-24T21:12:14.396Z,62.30
2018-06-24T21:14:59.123Z,62.40
2018-06-24T21:17:29.103Z,62.40
2018-06-24T21:20:05.044Z,62.60
2018-06-24T21:22:36.805Z,62.70
2018-06-24T21:25:12.081Z,63.00
2018-06-24T21:27:42.825Z,63.20
2018-06-24T21:30:13.084Z,63.40
2018-06-24T21:32:44.758Z,63.40
2018-06-24T21:35:14.421Z,63.50
2018-06-24T21:37:44.256Z,63.70
2018-06-24T21:40:13.916Z,64.30
2018-06-24T21:42:43.903Z,64.00
2018-06-24T21:45:15.559Z,64.10
2018-06-24T21:47:45.441Z,64.20
2018-06-24T21:50:15.292Z,64.40
2018-06-24T21:52:50.833Z,64.50
2018-06-24T21:55:20.497Z,64.90
2018-06-24T21:57:53.809Z,65.20
2018-06-24T22:00:23.503Z,65.70
2018-06-24T22:02:58.592Z,66.00
2018-06-24T22:05:28.258Z,66.40
2018-06-24T22:07:58.219Z,66.80
2018-06-24T22:10:28.889Z,67.20
2018-06-24T22:12:58.650Z,67.30
2018-06-24T22:15:28.762Z,67.80
2018-06-24T22:17:59.017Z,68.10
2018-06-24T22:20:28.759Z,68.30
2018-06-24T22:23:00.808Z,68.60
2018-06-24T22:25:30.543Z,68.70
2018-06-24T22:28:00.049Z,69.00
2018-06-24T22:30:29.960Z,69.00
2018-06-24T22:32:59.530Z,69.20
2018-06-24T22:35:29.230Z,69.30
2018-06-24T22:37:59.132Z,69.30
2018-06-24T22:40:31.008Z,69.30
2018-06-24T22:43:06.646Z,69.30
2018-06-24T22:45:36.859Z,69.40
2018-06-24T22:48:06.888Z,69.50
2018-06-24T22:50:36.372Z,69.70
2018-06-24T22:53:06.886Z,70.00
2018-06-24T22:55:48.313Z,70.30
2018-06-24T22:58:18.178Z,70.40
2018-06-24T23:00:47.779Z,70.60
2018-06-24T23:03:20.039Z,70.90
2018-06-24T23:05:49.661Z,71.10
2018-06-24T23:08:31.894Z,71.40
2018-06-24T23:11:01.796Z,71.50
2018-06-24T23:13:36.070Z,71.70
2018-06-24T23:16:05.904Z,71.80
2018-06-24T23:18:35.644Z,72.10
2018-06-24T23:21:05.323Z,72.30
2018-06-24T23:23:35.350Z,72.30
2018-06-24T23:26:04.775Z,72.40
2018-06-24T23:28:40.734Z,72.50
2018-06-24T23:31:10.167Z,72.60
2018-06-24T23:33:39.714Z,72.80
2018-06-24T23:36:09.260Z,72.80
2018-06-24T23:38:38.750Z,73.00
2018-06-24T23:41:08.218Z,73.00
2018-06-24T23:43:38.662Z,73.10
2018-06-24T23:46:08.559Z,73.20
2018-06-24T23:48:38.001Z,73.30
2018-06-24T23:51:07.727Z,73.40
2018-06-24T23:53:38.407Z,73.50
2018-06-24T23:56:07.804Z,73.70
2018-06-24T23:58:37.255Z,73.90
